createdAt,value
2022-11-05T00:01:55.809Z,100017.06
2022-11-05T00:04:41.230Z,100018.78
2022-11-05T00:07:32.018Z,100011.84
2022-11-05T00:10:02.391Z,100016.19
2022-11-05T00:12:49.706Z,100011.84
2022-11-05T00:15:34.905Z,100010.97
2022-11-05T00:18:01.941Z,100020.53
2022-11-05T00:20:28.982Z,100018.78
2022-11-05T00:23:21.397Z,100015.34
2022-11-05T00:26:14.428Z,100021.41
2022-11-05T00:28:44.000Z,100024.00
2022-11-05T00:31:13.724Z,99968.44
2022-11-05T00:33:41.784Z,100025.75
2022-11-05T00:36:10.009Z,100020.53
2022-11-05T00:38:37.273Z,100026.63
2022-11-05T00:41:04.407Z,100037.91
2022-11-05T00:43:49.723Z,100036.19
2022-11-05T00:46:16.636Z,100044.00
2022-11-05T00:49:02.192Z,100044.88
2022-11-05T00:51:29.316Z,100046.59
2022-11-05T00:53:56.356Z,100039.66
2022-11-05T00:56:23.376Z,100048.31
2022-11-05T00:58:50.533Z,100047.47
2022-11-05T01:01:17.566Z,100047.44
2022-11-05T01:03:50.377Z,100051.81
2022-11-05T01:06:18.767Z,100055.28
2022-11-05T01:08:46.461Z,100051.78
2022-11-05T01:11:37.279Z,100051.78
2022-11-05T01:14:06.381Z,100055.28
2022-11-05T01:16:33.391Z,100056.16
2022-11-05T01:19:01.248Z,100064.84
2022-11-05T01:21:28.310Z,100065.69
2022-11-05T01:23:55.421Z,100068.31
2022-11-05T01:26:22.938Z,100069.19
2022-11-05T01:28:56.940Z,100062.22
2022-11-05T01:31:24.739Z,100073.53
2022-11-05T01:33:51.693Z,100066.56
2022-11-05T01:36:19.031Z,100070.06
2022-11-05T01:38:46.016Z,100069.19
2022-11-05T01:41:12.954Z,100075.25
2022-11-05T01:43:50.721Z,100077.88
2022-11-05T01:46:37.899Z,100082.19
2022-11-05T01:49:10.787Z,100082.22
2022-11-05T01:51:38.816Z,100075.25
2022-11-05T01:54:09.906Z,100081.34
2022-11-05T01:56:48.756Z,100091.75
2022-11-05T01:59:20.725Z,100087.41
2022-11-05T02:01:48.240Z,100084.81
2022-11-05T02:04:23.335Z,100092.63
2022-11-05T02:06:50.435Z,100089.19
2022-11-05T02:09:22.720Z,100100.47
2022-11-05T02:11:50.313Z,100097.84
2022-11-05T02:14:18.470Z,100094.38
2022-11-05T02:16:55.341Z,100099.59
2022-11-05T02:19:25.240Z,100099.59
2022-11-05T02:22:10.877Z,100107.41
2022-11-05T02:25:01.006Z,100105.63
2022-11-05T02:27:30.138Z,100106.50
2022-11-05T02:30:00.061Z,100109.09
2022-11-05T02:32:29.844Z,100112.56
2022-11-05T02:35:02.668Z,100114.34
2022-11-05T02:37:40.513Z,100114.34
2022-11-05T02:40:19.724Z,100104.78
2022-11-05T02:43:15.169Z,100113.47
2022-11-05T02:45:51.300Z,100122.16
2022-11-05T02:48:36.671Z,100120.41
2022-11-05T02:51:16.076Z,100119.53
2022-11-05T02:53:43.088Z,100119.53
2022-11-05T02:56:14.679Z,100139.53
2022-11-05T02:58:41.849Z,100121.28
2022-11-05T03:01:10.350Z,100128.25
2022-11-05T03:03:43.536Z,100140.41
2022-11-05T03:06:28.931Z,100140.44
2022-11-05T03:09:11.296Z,100138.69
2022-11-05T03:11:56.619Z,100140.41
2022-11-05T03:14:29.636Z,100146.50
2022-11-05T03:17:02.505Z,100143.88
2022-11-05T03:19:32.523Z,100136.06
2022-11-05T03:22:08.545Z,100136.91
2022-11-05T03:24:39.061Z,100140.38
2022-11-05T03:27:11.951Z,100146.44
2022-11-05T03:29:44.652Z,100148.16
2022-11-05T03:32:12.736Z,100155.09
2022-11-05T03:34:43.286Z,100155.97
2022-11-05T03:37:11.183Z,100165.56
2022-11-05T03:39:41.059Z,100154.28
2022-11-05T03:42:10.112Z,100165.59
2022-11-05T03:44:38.831Z,100159.50
2022-11-05T03:47:09.104Z,100163.00
2022-11-05T03:49:38.829Z,100164.75
2022-11-05T03:52:15.710Z,100160.41
2022-11-05T03:54:42.703Z,100173.44
2022-11-05T03:57:09.622Z,100171.69
2022-11-05T03:59:42.196Z,100180.38
2022-11-05T04:02:10.778Z,100176.94
2022-11-05T04:04:37.956Z,100192.56
2022-11-05T04:07:23.448Z,100188.19
2022-11-05T04:10:13.271Z,100189.03
2022-11-05T04:12:58.460Z,100192.53
2022-11-05T04:15:25.643Z,100194.31
2022-11-05T04:17:53.123Z,100193.47
2022-11-05T04:20:38.571Z,100189.97
2022-11-05T04:23:25.603Z,100196.94
2022-11-05T04:25:52.634Z,100196.94
2022-11-05T04:28:19.659Z,100190.88
2022-11-05T04:30:46.593Z,100192.59
2022-11-05T04:33:14.856Z,100188.22
2022-11-05T04:35:45.944Z,100187.34
2022-11-05T04:38:17.152Z,100189.09
2022-11-05T04:40:44.718Z,100188.22
2022-11-05T04:43:15.675Z,100191.66
2022-11-05T04:45:43.129Z,100199.47
2022-11-05T04:48:10.431Z,100207.25
2022-11-05T04:50:37.696Z,100201.19
2022-11-05T04:53:04.711Z,100203.78
2022-11-05T04:55:31.774Z,100209.88
2022-11-05T04:57:58.719Z,100212.47
2022-11-05T05:00:26.439Z,100215.06
2022-11-05T05:02:53.438Z,100221.91
2022-11-05T05:05:22.680Z,100223.63
2022-11-05T05:07:49.686Z,100217.50
2022-11-05T05:10:16.809Z,100223.63
2022-11-05T05:12:43.717Z,100221.06
2022-11-05T05:15:10.723Z,100216.72
2022-11-05T05:17:37.669Z,100220.22
2022-11-05T05:20:23.653Z,100234.09
2022-11-05T05:22:54.357Z,100235.88
2022-11-05T05:25:21.948Z,100232.44
2022-11-05T05:27:48.893Z,100222.94
2022-11-05T05:30:16.015Z,100229.84
2022-11-05T05:32:43.029Z,100242.00
2022-11-05T05:35:10.056Z,100250.72
2022-11-05T05:37:36.993Z,100242.03
2022-11-05T05:40:04.906Z,100252.47
2022-11-05T05:42:32.723Z,100252.44
2022-11-05T05:45:00.048Z,100257.63
2022-11-05T05:47:27.089Z,100256.75
2022-11-05T05:49:53.979Z,100257.59
2022-11-05T05:52:21.248Z,100257.53
2022-11-05T05:54:48.145Z,100263.66
2022-11-05T05:57:15.228Z,100266.28
2022-11-05T05:59:42.297Z,100274.09
2022-11-05T06:02:09.388Z,100274.97
2022-11-05T06:04:36.459Z,100275.88
2022-11-05T06:07:03.528Z,100275.03
2022-11-05T06:09:30.633Z,100275.06
2022-11-05T06:11:57.620Z,100275.97
2022-11-05T06:14:24.570Z,100269.00
2022-11-05T06:16:51.618Z,100286.41
2022-11-05T06:19:18.597Z,100269.91
2022-11-05T06:21:45.521Z,100286.41
2022-11-05T06:24:12.466Z,100302.06
2022-11-05T06:26:43.020Z,100295.97
2022-11-05T06:29:10.848Z,100283.81
2022-11-05T06:31:37.850Z,100289.03
2022-11-05T06:34:04.862Z,100279.47
2022-11-05T06:36:31.881Z,100282.09
2022-11-05T06:38:58.796Z,100279.50
2022-11-05T06:41:26.433Z,100290.75
2022-11-05T06:43:53.388Z,100296.03
2022-11-05T06:46:20.352Z,100295.13
2022-11-05T06:48:47.436Z,100278.63
2022-11-05T06:51:14.471Z,100288.22
2022-11-05T06:53:41.525Z,100299.53
2022-11-05T06:56:08.950Z,100303.88
2022-11-05T06:58:35.942Z,100305.59
2022-11-05T07:01:04.542Z,100316.03
2022-11-05T07:03:31.812Z,100322.13
2022-11-05T07:06:01.065Z,100328.19
2022-11-05T07:08:31.923Z,100321.22
2022-11-05T07:11:00.013Z,100321.16
2022-11-05T07:13:27.111Z,100317.66
2022-11-05T07:15:54.228Z,100324.63
2022-11-05T07:18:21.186Z,100321.22
2022-11-05T07:20:49.077Z,100327.31
2022-11-05T07:23:16.676Z,100326.50
2022-11-05T07:25:43.892Z,100323.03
2022-11-05T07:28:10.836Z,100323.03
2022-11-05T07:30:38.323Z,100342.19
2022-11-05T07:33:05.287Z,100330.00
2022-11-05T07:35:32.427Z,100335.22
2022-11-05T07:37:59.374Z,100338.69
2022-11-05T07:40:27.777Z,100343.03
2022-11-05T07:42:56.296Z,100344.78
2022-11-05T07:45:23.714Z,100343.06
2022-11-05T07:47:51.736Z,100351.81
2022-11-05T07:50:19.495Z,100348.38
2022-11-05T07:52:46.715Z,100352.69
2022-11-05T07:55:14.444Z,100343.13
2022-11-05T07:57:45.107Z,100348.34
2022-11-05T08:00:14.296Z,100349.22
2022-11-05T08:02:42.317Z,100357.91
2022-11-05T08:05:10.177Z,100359.63
2022-11-05T08:07:37.203Z,100357.06
2022-11-05T08:10:04.865Z,100360.53
2022-11-05T08:12:33.878Z,100358.81
2022-11-05T08:15:01.228Z,100251.75
2022-11-05T08:17:30.399Z,100363.13
2022-11-05T08:19:57.313Z,100355.31
2022-11-05T08:22:24.353Z,100353.56
2022-11-05T08:24:51.342Z,100353.56
2022-11-05T08:27:18.276Z,100351.81
2022-11-05T08:29:45.262Z,100362.28
2022-11-05T08:32:12.275Z,100362.25
2022-11-05T08:34:39.274Z,100365.75
2022-11-05T08:37:06.269Z,100364.91
2022-11-05T08:39:33.324Z,100358.78
2022-11-05T08:42:00.976Z,100365.75
2022-11-05T08:44:28.934Z,100364.88
2022-11-05T08:46:56.150Z,100365.72
2022-11-05T08:49:23.106Z,100369.19
2022-11-05T08:51:50.194Z,100375.31
2022-11-05T08:54:17.119Z,100373.53
2022-11-05T08:56:44.748Z,100371.84
2022-11-05T08:59:11.725Z,100365.72
2022-11-05T09:01:38.850Z,100364.84
2022-11-05T09:04:05.922Z,100363.13
2022-11-05T09:06:32.863Z,100361.38
2022-11-05T09:08:59.940Z,100269.16
2022-11-05T09:11:49.701Z,100362.25
2022-11-05T09:14:14.098Z,100367.47
2022-11-05T09:16:42.638Z,100363.97
2022-11-05T09:19:09.636Z,100369.22
2022-11-05T09:21:36.529Z,100370.06
2022-11-05T09:24:04.529Z,100376.19
2022-11-05T09:26:31.548Z,100377.06
2022-11-05T09:28:58.676Z,100372.66
2022-11-05T09:31:25.620Z,100377.88
2022-11-05T09:33:52.651Z,100369.19
2022-11-05T09:36:19.691Z,100376.16
2022-11-05T09:38:46.723Z,100375.25
2022-11-05T09:41:46.048Z,100375.28
2022-11-05T09:44:24.119Z,100376.13
2022-11-05T09:46:54.113Z,100377.84
2022-11-05T09:49:29.948Z,100375.19
2022-11-05T09:51:58.417Z,100371.72
2022-11-05T09:54:28.637Z,100376.94
2022-11-05T09:56:56.043Z,100383.91
2022-11-05T09:59:26.593Z,100389.13
2022-11-05T10:01:56.584Z,100390.03
2022-11-05T10:04:26.083Z,100390.91
2022-11-05T10:06:59.991Z,100394.38
2022-11-05T10:09:30.382Z,100395.28
2022-11-05T10:12:16.063Z,100397.00
2022-11-05T10:14:48.873Z,100396.13
2022-11-05T10:17:15.853Z,100396.97
2022-11-05T10:19:51.936Z,100394.34
2022-11-05T10:22:19.509Z,100396.06
2022-11-05T10:24:47.875Z,100396.94
2022-11-05T10:27:27.890Z,100409.13
2022-11-05T10:29:55.275Z,100409.19
2022-11-05T10:32:28.384Z,100401.31
2022-11-05T10:34:57.534Z,100398.75
2022-11-05T10:37:24.798Z,100403.13
2022-11-05T10:39:51.810Z,100404.00
2022-11-05T10:42:24.738Z,100403.97
2022-11-05T10:45:08.172Z,100403.09
2022-11-05T10:47:44.068Z,100404.00
2022-11-05T10:50:18.833Z,100404.88
2022-11-05T10:52:45.881Z,100402.25
2022-11-05T10:55:21.898Z,100408.38
2022-11-05T10:57:49.956Z,100409.25
2022-11-05T11:00:17.097Z,100419.69
2022-11-05T11:03:00.661Z,100419.66
2022-11-05T11:05:30.237Z,100424.00
2022-11-05T11:08:02.288Z,100423.16
2022-11-05T11:10:30.940Z,100423.16
2022-11-05T11:12:58.286Z,100420.56
2022-11-05T11:15:29.693Z,100417.06
2022-11-05T11:17:56.676Z,100420.56
2022-11-05T11:20:25.585Z,100422.34
2022-11-05T11:22:59.914Z,100419.72
2022-11-05T11:25:28.559Z,100427.56
2022-11-05T11:27:55.950Z,100429.31
2022-11-05T11:30:25.986Z,100434.53
2022-11-05T11:33:03.819Z,100430.19
2022-11-05T11:35:31.007Z,100434.53
2022-11-05T11:38:01.066Z,100444.13
2022-11-05T11:40:32.338Z,100447.59
2022-11-05T11:43:01.071Z,100444.13
2022-11-05T11:45:31.924Z,100448.50
2022-11-05T11:48:01.345Z,100441.53
2022-11-05T11:50:31.330Z,100438.91
2022-11-05T11:53:18.493Z,100450.25
2022-11-05T11:55:57.174Z,100450.22
2022-11-05T11:58:25.851Z,100443.25
2022-11-05T12:00:58.871Z,100446.75
2022-11-05T12:03:29.562Z,100438.06
2022-11-05T12:06:07.794Z,100447.63
2022-11-05T12:08:41.599Z,100454.59
2022-11-05T12:11:18.558Z,100455.47
2022-11-05T12:13:45.446Z,100458.09
2022-11-05T12:16:17.539Z,100458.09
2022-11-05T12:18:49.184Z,100454.59
2022-11-05T12:21:47.795Z,100458.94
2022-11-05T12:24:38.224Z,100452.84
2022-11-05T12:27:23.699Z,100456.34
2022-11-05T12:29:55.053Z,100453.72
2022-11-05T12:32:22.064Z,100455.47
2022-11-05T12:35:03.591Z,100453.72
2022-11-05T12:37:41.783Z,100448.47
2022-11-05T12:40:28.659Z,100437.16
2022-11-05T12:43:14.465Z,100451.97
2022-11-05T12:45:53.261Z,100457.19
2022-11-05T12:48:37.260Z,100465.91
2022-11-05T12:51:16.550Z,100465.06
2022-11-05T12:53:52.636Z,100471.13
2022-11-05T12:56:24.131Z,100470.28
2022-11-05T12:58:55.205Z,100470.28
2022-11-05T13:01:28.273Z,100461.56
2022-11-05T13:03:58.357Z,100465.94
2022-11-05T13:06:42.712Z,100467.66
2022-11-05T13:09:09.767Z,100470.28
2022-11-05T13:11:42.298Z,100472.88
2022-11-05T13:14:12.269Z,100479.88
2022-11-05T13:16:47.910Z,100472.03
2022-11-05T13:19:26.764Z,100472.03
2022-11-05T13:21:57.353Z,100475.50
2022-11-05T13:24:26.602Z,100476.38
2022-11-05T13:27:01.461Z,100484.22
2022-11-05T13:29:31.610Z,100486.81
2022-11-05T13:32:18.860Z,100486.81
2022-11-05T13:34:45.867Z,100492.91
2022-11-05T13:37:32.897Z,100497.25
2022-11-05T13:40:02.119Z,100505.09
2022-11-05T13:42:32.838Z,100503.38
2022-11-05T13:45:10.628Z,100506.88
2022-11-05T13:47:49.709Z,100507.75
2022-11-05T13:50:22.728Z,100512.97
2022-11-05T13:53:08.784Z,100507.75
2022-11-05T13:55:41.809Z,100517.31
2022-11-05T13:58:11.761Z,100519.94
2022-11-05T14:00:46.478Z,100519.94
2022-11-05T14:03:20.768Z,100526.03
2022-11-05T14:05:58.071Z,100524.25
2022-11-05T14:08:28.023Z,100527.72
2022-11-05T14:11:06.771Z,100526.84
2022-11-05T14:13:38.520Z,100527.72
2022-11-05T14:16:31.459Z,100525.09
2022-11-05T14:19:16.882Z,100526.00
2022-11-05T14:21:50.705Z,100525.13
2022-11-05T14:24:24.161Z,100532.06
2022-11-05T14:27:01.103Z,100532.06
2022-11-05T14:29:44.782Z,100532.94
2022-11-05T14:32:17.575Z,100532.06
2022-11-05T14:34:44.525Z,100526.84
2022-11-05T14:37:11.484Z,100534.66
2022-11-05T14:39:38.885Z,100526.84
2022-11-05T14:42:14.709Z,100539.84
2022-11-05T14:45:00.697Z,100536.38
2022-11-05T14:47:36.108Z,100536.41
2022-11-05T14:50:09.636Z,100539.03
2022-11-05T14:52:37.588Z,100535.53
2022-11-05T14:55:05.813Z,100533.78
2022-11-05T14:57:44.610Z,100541.63
2022-11-05T15:00:29.696Z,100539.03
2022-11-05T15:03:01.595Z,100539.88
2022-11-05T15:05:31.581Z,100544.28
2022-11-05T15:07:59.786Z,100539.88
2022-11-05T15:10:30.560Z,100546.88
2022-11-05T15:13:03.739Z,100545.13
2022-11-05T15:15:42.773Z,100549.47
2022-11-05T15:18:09.757Z,100542.53
2022-11-05T15:20:40.350Z,100546.88
2022-11-05T15:23:10.407Z,100546.88
2022-11-05T15:25:56.556Z,100554.69
2022-11-05T15:28:26.966Z,100559.00
2022-11-05T15:31:05.539Z,100564.22
2022-11-05T15:33:32.733Z,100563.38
2022-11-05T15:36:09.844Z,100571.22
2022-11-05T15:38:36.916Z,100572.94
2022-11-05T15:41:06.058Z,100575.56
2022-11-05T15:43:33.094Z,100559.88
2022-11-05T15:46:06.165Z,100577.28
2022-11-05T15:48:33.710Z,100575.56
2022-11-05T15:51:01.518Z,100572.09
2022-11-05T15:53:56.053Z,100572.09
2022-11-05T15:56:23.372Z,100575.53
2022-11-05T15:58:53.167Z,100569.44
2022-11-05T16:01:21.444Z,100562.50
2022-11-05T16:03:48.612Z,100562.41
2022-11-05T16:06:15.900Z,100566.78
2022-11-05T16:08:46.867Z,100565.06
2022-11-05T16:11:21.116Z,100569.41
2022-11-05T16:13:48.116Z,100571.13
2022-11-05T16:16:15.078Z,100571.16
2022-11-05T16:18:42.547Z,100569.41
2022-11-05T16:21:14.264Z,100575.50
2022-11-05T16:23:43.492Z,100574.56
2022-11-05T16:26:48.009Z,100573.69
2022-11-05T16:29:13.244Z,100571.94
2022-11-05T16:31:40.387Z,100569.31
2022-11-05T16:34:07.526Z,100571.91
2022-11-05T16:36:34.530Z,100571.94
2022-11-05T16:39:01.579Z,100580.66
2022-11-05T16:41:28.637Z,100577.16
2022-11-05T16:43:57.278Z,100577.13
2022-11-05T16:46:25.645Z,100570.16
2022-11-05T16:48:52.647Z,100571.91
2022-11-05T16:51:23.392Z,100576.28
2022-11-05T16:53:53.284Z,100573.72
2022-11-05T16:56:21.752Z,100581.53
2022-11-05T16:58:49.857Z,100576.34
2022-11-05T17:01:21.999Z,100585.09
2022-11-05T17:03:49.999Z,100583.38
2022-11-05T17:06:17.675Z,100587.78
2022-11-05T17:08:44.836Z,100591.25
2022-11-05T17:11:19.196Z,100585.16
2022-11-05T17:13:46.710Z,100588.63
2022-11-05T17:16:15.289Z,100593.84
2022-11-05T17:18:42.901Z,100594.72
2022-11-05T17:21:10.811Z,100592.97
2022-11-05T17:23:38.536Z,100598.19
2022-11-05T17:26:10.466Z,100599.06
2022-11-05T17:28:40.714Z,100586.84
2022-11-05T17:31:09.124Z,100580.75
2022-11-05T17:33:36.082Z,100583.38
2022-11-05T17:36:10.816Z,100580.75
2022-11-05T17:38:37.914Z,100592.94
2022-11-05T17:41:19.082Z,100588.59
2022-11-05T17:43:46.333Z,100591.19
2022-11-05T17:46:14.605Z,100594.69
2022-11-05T17:48:41.887Z,100598.16
2022-11-05T17:51:09.558Z,100590.31
2022-11-05T17:53:36.730Z,100596.41
2022-11-05T17:56:07.795Z,100596.34
2022-11-05T17:58:35.077Z,100600.72
2022-11-05T18:01:02.383Z,100598.97
2022-11-05T18:03:29.345Z,100605.91
2022-11-05T18:06:06.343Z,100600.69
2022-11-05T18:08:33.371Z,100605.94
2022-11-05T18:11:00.680Z,100608.56
2022-11-05T18:13:27.668Z,100603.31
2022-11-05T18:15:54.809Z,100611.13
2022-11-05T18:18:22.220Z,100607.63
2022-11-05T18:20:49.199Z,100604.16
2022-11-05T18:23:16.209Z,100607.63
2022-11-05T18:25:43.623Z,100611.09
2022-11-05T18:28:10.999Z,100605.88
2022-11-05T18:30:38.748Z,100606.69
2022-11-05T18:33:05.971Z,100609.31
2022-11-05T18:35:32.978Z,100604.94
2022-11-05T18:38:00.025Z,100607.56
2022-11-05T18:40:27.776Z,100607.56
2022-11-05T18:42:54.824Z,100610.16
2022-11-05T18:45:26.873Z,100616.25
2022-11-05T18:47:56.589Z,100612.75
2022-11-05T18:50:23.553Z,100610.16
2022-11-05T18:52:50.501Z,100609.25
2022-11-05T18:55:18.991Z,100609.25
2022-11-05T18:57:45.939Z,100608.41
2022-11-05T19:00:13.529Z,100604.88
2022-11-05T19:02:40.726Z,100610.06
2022-11-05T19:05:27.958Z,100611.81
2022-11-05T19:07:54.888Z,100616.16
2022-11-05T19:10:21.880Z,100621.38
2022-11-05T19:12:48.901Z,100616.16
2022-11-05T19:15:15.817Z,100617.91
2022-11-05T19:17:42.837Z,100625.72
2022-11-05T19:20:09.856Z,100628.31
2022-11-05T19:22:36.818Z,100635.28
2022-11-05T19:25:04.233Z,100637.00
2022-11-05T19:27:31.221Z,100633.50
2022-11-05T19:29:58.267Z,100642.22
2022-11-05T19:32:25.349Z,100643.94
2022-11-05T19:34:52.289Z,100641.31
2022-11-05T19:37:20.090Z,100641.31
2022-11-05T19:39:47.142Z,100647.38
2022-11-05T19:42:14.289Z,100642.09
2022-11-05T19:44:41.704Z,100647.28
2022-11-05T19:47:08.688Z,100652.47
2022-11-05T19:49:36.118Z,100649.91
2022-11-05T19:52:03.272Z,100656.00
2022-11-05T19:54:30.150Z,100645.59
2022-11-05T19:56:57.456Z,100646.53
2022-11-05T19:59:24.443Z,100649.16
2022-11-05T20:01:51.669Z,100645.72
2022-11-05T20:04:18.801Z,100651.78
2022-11-05T20:06:45.761Z,100652.69
2022-11-05T20:09:22.449Z,100655.28
2022-11-05T20:11:59.684Z,100657.03
2022-11-05T20:14:26.694Z,100654.38
2022-11-05T20:16:53.870Z,100660.47
2022-11-05T20:19:21.927Z,100658.66
2022-11-05T20:21:49.020Z,100674.31
2022-11-05T20:24:23.317Z,100665.59
2022-11-05T20:26:51.854Z,100664.66
2022-11-05T20:29:18.898Z,100672.44
2022-11-05T20:31:45.842Z,100669.84
2022-11-05T20:34:13.079Z,100658.63
2022-11-05T20:36:40.105Z,100659.56
2022-11-05T20:39:07.421Z,100659.53
2022-11-05T20:41:34.491Z,100656.94
2022-11-05T20:44:01.770Z,100655.19
2022-11-05T20:46:28.797Z,100667.38
2022-11-05T20:48:55.952Z,100658.72
2022-11-05T20:51:24.590Z,100662.22
2022-11-05T20:53:55.801Z,100548.72
2022-11-05T20:56:24.526Z,100658.72
2022-11-05T20:58:51.935Z,100650.84
2022-11-05T21:01:19.685Z,100664.72
2022-11-05T21:03:47.866Z,100670.75
2022-11-05T21:06:15.526Z,100662.88
2022-11-05T21:08:42.982Z,100658.56
2022-11-05T21:11:10.742Z,100662.00
2022-11-05T21:13:37.759Z,100662.81
2022-11-05T21:16:05.851Z,100654.97
2022-11-05T21:18:33.547Z,100656.72
2022-11-05T21:21:00.698Z,100655.84
2022-11-05T21:23:28.722Z,100657.53
2022-11-05T21:25:55.888Z,100661.00
2022-11-05T21:28:22.907Z,100658.44
2022-11-05T21:30:50.049Z,100675.81
2022-11-05T21:33:18.143Z,100659.31
2022-11-05T21:35:46.282Z,100665.38
2022-11-05T21:38:14.529Z,100667.91
2022-11-05T21:40:41.943Z,100678.34
2022-11-05T21:43:09.098Z,100680.06
2022-11-05T21:45:38.399Z,100684.34
2022-11-05T21:48:05.693Z,100590.88
2022-11-05T21:50:51.269Z,100681.78
2022-11-05T21:53:36.492Z,100676.63
2022-11-05T21:56:26.292Z,100680.13
2022-11-05T21:59:11.716Z,100683.63
2022-11-05T22:01:38.885Z,100680.97
2022-11-05T22:04:05.875Z,100687.16
2022-11-05T22:06:35.717Z,100680.25
2022-11-05T22:09:02.698Z,100675.88
2022-11-05T22:11:29.735Z,100689.78
2022-11-05T22:13:56.784Z,100685.44
2022-11-05T22:16:23.707Z,100681.97
2022-11-05T22:18:50.797Z,100685.47
2022-11-05T22:21:18.612Z,100683.72
2022-11-05T22:23:45.792Z,100685.50
2022-11-05T22:26:12.844Z,100684.69
2022-11-05T22:28:39.794Z,100690.78
2022-11-05T22:31:16.408Z,100700.28
2022-11-05T22:33:43.682Z,100695.00
2022-11-05T22:36:11.476Z,100697.59
2022-11-05T22:38:38.567Z,100696.72
2022-11-05T22:41:09.359Z,100704.53
2022-11-05T22:43:36.456Z,100715.84
2022-11-05T22:46:08.044Z,100709.81
2022-11-05T22:48:35.655Z,100708.06
2022-11-05T22:51:06.602Z,100716.66
2022-11-05T22:53:34.585Z,100709.63
2022-11-05T22:56:09.499Z,100722.66
2022-11-05T22:58:36.751Z,100712.25
2022-11-05T23:01:04.381Z,100721.84
2022-11-05T23:03:32.285Z,100719.22
2022-11-05T23:06:00.955Z,100714.91
2022-11-05T23:08:46.535Z,100718.44
2022-11-05T23:11:36.191Z,100721.94
2022-11-05T23:14:03.350Z,100730.63
2022-11-05T23:16:48.674Z,100723.69
2022-11-05T23:19:34.286Z,100729.75
2022-11-05T23:22:19.756Z,100729.69
2022-11-05T23:24:47.365Z,100725.28
2022-11-05T23:27:14.832Z,100733.13
2022-11-05T23:29:41.968Z,100728.81
2022-11-05T23:32:28.296Z,100725.41
2022-11-05T23:34:56.732Z,100723.69
2022-11-05T23:37:44.676Z,100722.78
2022-11-05T23:40:15.012Z,100727.09
2022-11-05T23:43:01.008Z,100723.53
2022-11-05T23:45:47.142Z,100719.13
2022-11-05T23:48:20.279Z,100727.88
2022-11-05T23:50:49.921Z,100720.84
2022-11-05T23:53:17.377Z,100716.47
2022-11-05T23:55:44.650Z,100722.56
2022-11-05T23:58:12.119Z,100717.34
